This is the latest recevied weather packets stored in our database for station/object KN4DS-3. If no packets are shown the sender has not sent any weather packets the latest 1 day(s).
| Time | Temp. | Humidity | Pressure | Rain* | Wind** | Luminosity | Snow |
|---|---|---|---|---|---|---|---|
| 1777998904 | 26.67° C | 45% | 1017.1 hPa | 0 mm | 0.89 m/s, 114° | - | - |
| 1777998604 | 27.22° C | 44% | 1017.1 hPa | 0 mm | 0.89 m/s, 191° | - | - |
| 1777998304 | 26.67° C | 47% | 1017.2 hPa | 0 mm | 0.45 m/s, 187° | - | - |
| 1777998004 | 26.67° C | 46% | 1017.2 hPa | 0 mm | 1.34 m/s, 154° | - | - |
| 1777997704 | 26.11° C | 47% | 1017.2 hPa | 0 mm | 0.45 m/s, 172° | - | - |
| 1777997404 | 25.56° C | 47% | 1017.4 hPa | 0 mm | 1.34 m/s, 145° | - | - |
| 1777997104 | 26.11° C | 48% | 1017.3 hPa | 0 mm | 0.89 m/s, 146° | - | - |
| 1777996804 | 25.56° C | 46% | 1017.4 hPa | 0 mm | 1.79 m/s, 95° | - | - |
| 1777996504 | 25.56° C | 49% | 1017.5 hPa | 0 mm | 0.89 m/s, 142° | - | - |
| 1777996205 | 25.56° C | 50% | 1017.4 hPa | 0 mm | 0.45 m/s, 155° | - | - |
| 1777995904 | 25° C | 52% | 1017.3 hPa | 0 mm | 0.89 m/s, 217° | - | - |
| 1777995605 | 25° C | 52% | 1017.3 hPa | 0 mm | 1.34 m/s, 168° | - | - |
| 1777995304 | 25° C | 52% | 1017.5 hPa | 0 mm | 0.89 m/s, 99° | - | - |
| 1777995004 | 25° C | 51% | 1017.5 hPa | 0 mm | 1.34 m/s, 230° | - | - |
| 1777994704 | 24.44° C | 52% | 1017.5 hPa | 0 mm | 0.89 m/s, 258° | - | - |
| 1777994404 | 24.44° C | 56% | 1017.5 hPa | 0 mm | 0.45 m/s, 312° | - | - |
| 1777994104 | 23.89° C | 57% | 1017.4 hPa | 0 mm | 0.45 m/s, 141° | - | - |
| 1777993804 | 23.33° C | 57% | 1017.4 hPa | 0 mm | 0.45 m/s, 313° | - | - |
| 1777993504 | 22.78° C | 59% | 1017.3 hPa | 0 mm | 0.89 m/s, 96° | - | - |
| 1777993204 | 22.78° C | 59% | 1017.3 hPa | 0 mm | 1.34 m/s, 115° | - | - |
| 1777992904 | 22.22° C | 59% | 1017.3 hPa | 0 mm | 0.89 m/s, 143° | - | - |
| 1777992604 | 22.22° C | 59% | 1017.4 hPa | 0 mm | 1.34 m/s, 138° | - | - |
| 1777992304 | 21.67° C | 62% | 1017.4 hPa | 0 mm | 0.89 m/s, 180° | - | - |
| 1777992004 | 21.67° C | 63% | 1017.4 hPa | 0 mm | 0.89 m/s, 181° | - | - |
| 1777991704 | 21.67° C | 64% | 1017.5 hPa | 0 mm | 1.34 m/s, 96° | - | - |
* Rain latest hour (hover to see other rain measurements)
** Current wind speed in m/s (hover to see current wind gust speed)